createdAt,value
2022-08-26T00:01:53.027Z,15.75
2022-08-26T00:04:23.639Z,17.52
2022-08-26T00:06:50.901Z,19.67
2022-08-26T00:09:17.729Z,16.60
2022-08-26T00:11:45.559Z,13.27
2022-08-26T00:14:13.977Z,17.58
2022-08-26T00:16:47.864Z,13.70
2022-08-26T00:19:18.104Z,15.60
2022-08-26T00:21:46.501Z,20.25
2022-08-26T00:24:16.261Z,16.00
2022-08-26T00:26:43.367Z,17.40
2022-08-26T00:29:10.228Z,15.73
2022-08-26T00:31:37.916Z,15.77
2022-08-26T00:34:05.664Z,17.48
2022-08-26T00:36:32.598Z,19.02
2022-08-26T00:38:59.400Z,14.90
2022-08-26T00:41:26.544Z,15.48
2022-08-26T00:43:54.249Z,15.25
2022-08-26T00:46:25.689Z,18.42
2022-08-26T00:48:57.696Z,19.67
2022-08-26T00:51:30.056Z,14.10
2022-08-26T00:54:10.735Z,17.10
2022-08-26T00:56:47.088Z,13.55
2022-08-26T00:59:17.962Z,15.18
2022-08-26T01:01:46.060Z,15.05
2022-08-26T01:04:15.967Z,16.30
2022-08-26T01:06:44.413Z,16.25
2022-08-26T01:09:11.920Z,16.23
2022-08-26T01:11:39.300Z,15.85
2022-08-26T01:14:07.649Z,18.20
2022-08-26T01:16:36.076Z,17.35
2022-08-26T01:19:14.070Z,14.77
2022-08-26T01:22:10.109Z,17.98
2022-08-26T01:24:38.558Z,18.67
2022-08-26T01:27:08.898Z,14.48
2022-08-26T01:29:39.195Z,16.00
2022-08-26T01:32:10.013Z,17.10
2022-08-26T01:34:38.881Z,17.65
2022-08-26T01:37:15.535Z,15.30
2022-08-26T01:39:44.909Z,17.23
2022-08-26T01:42:14.976Z,16.65
2022-08-26T01:45:06.203Z,17.85
2022-08-26T01:47:36.590Z,19.15
2022-08-26T01:50:09.922Z,17.65
2022-08-26T01:52:41.487Z,17.02
2022-08-26T01:55:11.396Z,14.65
2022-08-26T01:57:38.181Z,16.27
2022-08-26T02:00:09.481Z,16.38
2022-08-26T02:02:39.861Z,16.20
2022-08-26T02:05:14.220Z,16.90
2022-08-26T02:07:42.131Z,16.55
2022-08-26T02:10:09.493Z,19.92
2022-08-26T02:12:37.175Z,19.77
2022-08-26T02:15:08.478Z,21.92
2022-08-26T02:17:44.209Z,17.77
2022-08-26T02:20:14.941Z,20.65
2022-08-26T02:22:43.023Z,21.05
2022-08-26T02:25:27.684Z,18.77
2022-08-26T02:27:56.675Z,20.08
2022-08-26T02:30:29.433Z,20.52
2022-08-26T02:32:59.561Z,22.00
2022-08-26T02:35:26.406Z,19.02
2022-08-26T02:37:53.506Z,20.10
2022-08-26T02:40:23.805Z,21.00
2022-08-26T02:42:53.075Z,20.75
2022-08-26T02:47:52.471Z,20.80
2022-08-26T02:50:20.489Z,23.27
2022-08-26T02:52:48.530Z,19.40
2022-08-26T02:55:16.090Z,18.95
2022-08-26T02:57:43.237Z,22.25
2022-08-26T03:00:14.690Z,20.50
2022-08-26T03:02:42.234Z,20.27
2022-08-26T03:05:09.601Z,20.20
2022-08-26T03:07:36.265Z,19.70
2022-08-26T03:10:06.881Z,21.30
2022-08-26T03:12:35.943Z,22.55
2022-08-26T03:15:03.390Z,18.42
2022-08-26T03:17:46.945Z,20.80
2022-08-26T03:20:15.597Z,15.95
2022-08-26T03:22:44.821Z,16.92
2022-08-26T03:25:15.149Z,18.92
2022-08-26T03:27:43.028Z,17.17
2022-08-26T03:30:30.038Z,15.82
2022-08-26T03:32:57.176Z,18.55
2022-08-26T03:35:25.822Z,18.63
2022-08-26T03:37:53.740Z,19.80
2022-08-26T03:40:21.586Z,17.20
2022-08-26T03:42:50.306Z,20.20
2022-08-26T03:45:19.913Z,18.05
2022-08-26T03:47:48.063Z,17.38
2022-08-26T03:50:22.787Z,17.90
2022-08-26T03:52:51.596Z,18.48
2022-08-26T03:55:19.487Z,16.75
2022-08-26T03:57:50.638Z,17.38
2022-08-26T04:00:18.681Z,18.30
2022-08-26T04:02:48.825Z,19.55
2022-08-26T04:05:18.173Z,16.73
2022-08-26T04:07:45.532Z,15.05
2022-08-26T04:10:14.559Z,18.27
2022-08-26T04:12:46.221Z,16.38
2022-08-26T04:15:16.194Z,20.42
2022-08-26T04:17:44.617Z,19.77
2022-08-26T04:20:13.978Z,18.90
2022-08-26T04:22:43.168Z,16.60
2022-08-26T04:25:10.622Z,18.23
2022-08-26T04:27:37.873Z,17.23
2022-08-26T04:30:07.688Z,18.17
2022-08-26T04:32:35.685Z,17.77
2022-08-26T04:35:04.575Z,22.98
2022-08-26T04:37:31.391Z,22.73
2022-08-26T04:39:59.528Z,20.77
2022-08-26T04:42:26.359Z,19.23
2022-08-26T04:44:53.288Z,19.55
2022-08-26T04:47:20.122Z,15.45
2022-08-26T04:49:46.821Z,17.80
2022-08-26T04:52:13.658Z,14.60
2022-08-26T04:54:42.019Z,15.35
2022-08-26T04:57:08.920Z,16.73
2022-08-26T04:59:39.061Z,13.95
2022-08-26T05:02:07.033Z,12.43
2022-08-26T05:04:34.180Z,13.95
2022-08-26T05:07:02.930Z,15.98
2022-08-26T05:09:30.397Z,12.85
2022-08-26T05:11:57.440Z,15.98
2022-08-26T05:14:24.269Z,14.38
2022-08-26T05:16:51.324Z,16.27
2022-08-26T05:19:19.232Z,18.10
2022-08-26T05:21:48.607Z,22.52
2022-08-26T05:24:16.124Z,16.50
2022-08-26T05:26:44.501Z,19.17
2022-08-26T05:29:11.856Z,14.23
2022-08-26T05:31:38.804Z,15.27
2022-08-26T05:34:05.983Z,12.63
2022-08-26T05:36:35.749Z,12.30
2022-08-26T05:39:05.781Z,11.35
2022-08-26T05:41:36.476Z,11.20
2022-08-26T05:44:10.251Z,9.52
2022-08-26T05:46:38.655Z,10.90
2022-08-26T05:49:12.593Z,9.80
2022-08-26T05:51:45.651Z,9.23
2022-08-26T05:54:14.160Z,9.15
2022-08-26T05:56:48.399Z,8.63
2022-08-26T05:59:16.046Z,8.52
2022-08-26T06:01:48.090Z,12.98
2022-08-26T06:04:14.963Z,8.85
2022-08-26T06:06:42.807Z,10.27
2022-08-26T06:09:11.239Z,10.05
2022-08-26T06:11:38.980Z,11.10
2022-08-26T06:14:07.949Z,9.95
2022-08-26T06:16:38.719Z,10.50
2022-08-26T06:19:10.688Z,13.38
2022-08-26T06:21:40.197Z,12.68
2022-08-26T06:24:29.116Z,15.23
2022-08-26T06:27:01.568Z,14.65
2022-08-26T06:29:30.827Z,14.48
2022-08-26T06:31:58.543Z,16.90
2022-08-26T06:34:30.256Z,17.95
2022-08-26T06:36:59.888Z,15.40
2022-08-26T06:39:30.710Z,21.93
2022-08-26T06:42:02.699Z,22.65
2022-08-26T06:44:33.743Z,23.00
2022-08-26T06:47:00.834Z,18.75
2022-08-26T06:49:27.942Z,15.18
2022-08-26T06:51:59.676Z,19.00
2022-08-26T06:54:27.911Z,17.60
2022-08-26T06:56:57.005Z,15.68
2022-08-26T06:59:24.109Z,21.73
2022-08-26T07:01:50.948Z,15.25
2022-08-26T07:04:20.207Z,18.30
2022-08-26T07:06:52.463Z,16.90
2022-08-26T07:09:22.343Z,23.80
2022-08-26T07:11:49.601Z,17.10
2022-08-26T07:14:21.086Z,18.35
2022-08-26T07:16:49.471Z,24.30
2022-08-26T07:19:17.690Z,21.67
2022-08-26T07:22:00.215Z,21.60
2022-08-26T07:24:28.604Z,23.80
2022-08-26T07:27:02.985Z,23.05
2022-08-26T07:29:32.495Z,23.98
2022-08-26T07:31:59.826Z,22.77
2022-08-26T07:34:27.391Z,23.35
2022-08-26T07:36:55.199Z,21.38
2022-08-26T07:39:22.725Z,26.50
2022-08-26T07:41:49.575Z,24.98
2022-08-26T07:44:16.768Z,21.98
2022-08-26T07:46:44.262Z,23.17
2022-08-26T07:49:19.893Z,23.60
2022-08-26T07:51:46.686Z,22.70
2022-08-26T07:54:13.522Z,21.33
2022-08-26T07:56:40.310Z,39.33
2022-08-26T07:59:13.603Z,27.38
2022-08-26T08:01:45.007Z,25.35
2022-08-26T08:04:17.411Z,21.63
2022-08-26T08:06:45.902Z,24.05
2022-08-26T08:09:16.156Z,26.10
2022-08-26T08:11:44.874Z,22.15
2022-08-26T08:14:13.225Z,24.67
2022-08-26T08:16:46.029Z,19.65
2022-08-26T08:19:15.256Z,21.20
2022-08-26T08:21:43.684Z,21.15
2022-08-26T08:24:11.269Z,20.35
2022-08-26T08:26:38.940Z,16.92
2022-08-26T08:29:06.049Z,18.40
2022-08-26T08:34:21.522Z,23.60
2022-08-26T08:36:50.397Z,19.23
2022-08-26T08:39:20.245Z,25.02
2022-08-26T08:42:13.678Z,19.35
2022-08-26T08:47:25.996Z,19.17
2022-08-26T08:49:55.804Z,19.92
2022-08-26T08:52:35.482Z,18.33
2022-08-26T08:55:11.148Z,16.83
2022-08-26T08:58:02.042Z,18.73
2022-08-26T09:00:58.425Z,16.45
2022-08-26T09:03:54.542Z,18.17
2022-08-26T09:06:21.753Z,14.90
2022-08-26T09:08:51.326Z,16.45
2022-08-26T09:11:19.969Z,16.13
2022-08-26T09:13:53.647Z,17.38
2022-08-26T09:16:24.146Z,16.92
2022-08-26T09:18:56.803Z,14.30
2022-08-26T09:21:25.361Z,17.60
2022-08-26T09:23:55.828Z,10.93
2022-08-26T09:26:39.064Z,15.57
2022-08-26T09:29:14.439Z,12.43
2022-08-26T09:31:41.590Z,13.25
2022-08-26T09:34:17.160Z,11.05
2022-08-26T09:36:56.391Z,13.10
2022-08-26T09:39:39.071Z,9.80
2022-08-26T09:42:14.349Z,15.35
2022-08-26T09:44:55.799Z,16.05
2022-08-26T09:47:30.275Z,16.90
2022-08-26T09:50:23.568Z,14.63
2022-08-26T09:53:30.304Z,15.43
2022-08-26T09:56:39.511Z,14.70
2022-08-26T09:59:11.120Z,13.10
2022-08-26T10:01:43.731Z,12.00
2022-08-26T10:04:22.899Z,10.90
2022-08-26T10:07:03.821Z,13.18
2022-08-26T10:09:36.543Z,11.60
2022-08-26T10:12:09.302Z,15.43
2022-08-26T10:17:30.867Z,13.77
2022-08-26T10:20:06.581Z,13.48
2022-08-26T10:22:55.312Z,13.63
2022-08-26T10:25:28.420Z,12.50
2022-08-26T10:28:04.841Z,10.23
2022-08-26T10:30:43.018Z,11.93
2022-08-26T10:33:15.040Z,13.50
2022-08-26T10:36:05.922Z,10.63
2022-08-26T10:38:38.574Z,10.38
2022-08-26T10:41:17.007Z,10.30
2022-08-26T10:44:07.350Z,11.57
2022-08-26T10:46:50.240Z,8.88
2022-08-26T10:49:18.888Z,8.65
2022-08-26T10:52:00.935Z,11.57
2022-08-26T10:54:52.868Z,11.50
2022-08-26T10:57:27.856Z,11.10
2022-08-26T11:00:50.205Z,9.55
2022-08-26T11:03:47.769Z,11.10
2022-08-26T11:06:19.718Z,10.55
2022-08-26T11:08:47.625Z,12.35
2022-08-26T11:11:40.323Z,9.50
2022-08-26T11:14:29.020Z,11.38
2022-08-26T11:16:57.625Z,11.88
2022-08-26T11:19:50.544Z,10.20
2022-08-26T11:22:32.059Z,10.35
2022-08-26T11:24:58.904Z,13.63
2022-08-26T11:27:26.143Z,9.63
2022-08-26T11:29:57.701Z,13.45
2022-08-26T11:32:34.367Z,10.88
2022-08-26T11:35:06.756Z,10.65
2022-08-26T11:37:40.559Z,9.35
2022-08-26T11:40:33.574Z,13.43
2022-08-26T11:43:07.048Z,11.18
2022-08-26T11:45:39.871Z,12.27
2022-08-26T11:48:20.143Z,10.20
2022-08-26T11:51:00.622Z,11.45
2022-08-26T11:53:28.996Z,14.40
2022-08-26T11:55:59.558Z,10.13
2022-08-26T11:58:28.117Z,9.32
2022-08-26T12:00:59.360Z,11.68
2022-08-26T12:06:03.620Z,8.70
2022-08-26T12:08:34.456Z,10.23
2022-08-26T12:11:06.364Z,10.02
2022-08-26T12:16:01.561Z,10.23
2022-08-26T12:18:38.495Z,12.68
2022-08-26T12:21:22.758Z,8.30
2022-08-26T12:23:56.797Z,8.25
2022-08-26T12:26:33.135Z,11.65
2022-08-26T12:29:26.930Z,13.95
2022-08-26T12:32:13.269Z,8.93
2022-08-26T12:34:45.416Z,10.93
2022-08-26T12:37:14.086Z,10.27
2022-08-26T12:39:44.677Z,12.25
2022-08-26T12:42:17.379Z,14.80
2022-08-26T12:45:04.264Z,12.45
2022-08-26T12:47:44.469Z,9.40
2022-08-26T12:50:28.413Z,8.88
2022-08-26T12:53:02.797Z,9.63
2022-08-26T12:55:46.164Z,13.02
2022-08-26T12:58:15.592Z,11.88
2022-08-26T13:00:44.137Z,9.30
2022-08-26T13:03:40.333Z,9.35
2022-08-26T13:06:29.602Z,13.93
2022-08-26T13:09:06.117Z,11.95
2022-08-26T13:11:55.704Z,10.23
2022-08-26T13:14:24.686Z,9.32
2022-08-26T13:16:52.868Z,8.85
2022-08-26T13:19:25.600Z,10.93
2022-08-26T13:21:58.520Z,12.60
2022-08-26T13:24:27.922Z,9.23
2022-08-26T13:26:54.756Z,12.65
2022-08-26T13:29:21.625Z,12.15
2022-08-26T13:31:48.466Z,12.32
2022-08-26T13:34:19.484Z,10.20
2022-08-26T13:36:48.041Z,11.07
2022-08-26T13:39:15.537Z,10.90
2022-08-26T13:41:43.324Z,10.00
2022-08-26T13:44:10.806Z,10.13
2022-08-26T13:46:38.236Z,11.77
2022-08-26T13:49:05.272Z,14.45
2022-08-26T13:51:32.706Z,9.95
2022-08-26T13:53:59.944Z,12.35
2022-08-26T13:56:29.852Z,9.88
2022-08-26T13:58:58.353Z,12.85
2022-08-26T14:01:26.648Z,10.95
2022-08-26T14:03:53.525Z,9.65
2022-08-26T14:06:20.985Z,9.88
2022-08-26T14:08:48.595Z,10.45
2022-08-26T14:11:15.630Z,9.98
2022-08-26T14:13:42.430Z,10.70
2022-08-26T14:16:13.406Z,10.10
2022-08-26T14:18:45.186Z,8.55
2022-08-26T14:21:14.262Z,8.88
2022-08-26T14:23:41.465Z,11.40
2022-08-26T14:26:10.910Z,9.38
2022-08-26T14:28:41.893Z,9.68
2022-08-26T14:31:08.961Z,10.23
2022-08-26T14:33:38.221Z,10.88
2022-08-26T14:36:24.405Z,12.88
2022-08-26T14:38:51.353Z,14.25
2022-08-26T14:41:19.975Z,11.43
2022-08-26T14:44:00.041Z,11.50
2022-08-26T14:46:30.133Z,10.80
2022-08-26T14:49:02.453Z,9.35
2022-08-26T14:51:30.382Z,11.60
2022-08-26T14:54:23.425Z,9.57
2022-08-26T14:56:55.350Z,9.63
2022-08-26T14:59:32.992Z,11.85
2022-08-26T15:02:00.850Z,10.38
2022-08-26T15:04:28.538Z,13.55
2022-08-26T15:06:58.753Z,7.93
2022-08-26T15:09:26.967Z,10.38
2022-08-26T15:11:54.313Z,8.77
2022-08-26T15:14:21.933Z,9.27
2022-08-26T15:16:51.025Z,11.55
2022-08-26T15:19:18.874Z,12.25
2022-08-26T15:21:47.134Z,10.45
2022-08-26T15:24:17.102Z,11.68
2022-08-26T15:26:44.719Z,13.45
2022-08-26T15:29:11.666Z,10.90
2022-08-26T15:31:38.665Z,11.93
2022-08-26T15:34:14.563Z,12.23
2022-08-26T15:36:44.899Z,13.80
2022-08-26T15:39:11.978Z,13.00
2022-08-26T15:41:39.007Z,9.43
2022-08-26T15:44:07.298Z,9.57
2022-08-26T15:46:35.609Z,7.88
2022-08-26T15:49:04.547Z,10.05
2022-08-26T15:51:45.286Z,9.55
2022-08-26T15:54:14.145Z,12.05
2022-08-26T15:56:40.936Z,13.65
2022-08-26T15:59:11.400Z,9.20
2022-08-26T16:01:38.331Z,9.98
2022-08-26T16:04:05.352Z,13.93
2022-08-26T16:06:35.267Z,9.30
2022-08-26T16:09:02.465Z,12.73
2022-08-26T16:11:29.562Z,10.55
2022-08-26T16:13:56.336Z,11.05
2022-08-26T16:16:23.276Z,9.65
2022-08-26T16:18:50.091Z,7.95
2022-08-26T16:21:20.205Z,9.57
2022-08-26T16:23:47.727Z,11.02
2022-08-26T16:26:18.454Z,12.77
2022-08-26T16:28:45.492Z,11.25
2022-08-26T16:31:13.143Z,12.27
2022-08-26T16:33:40.772Z,10.55
2022-08-26T16:36:08.776Z,11.63
2022-08-26T16:38:37.607Z,9.38
2022-08-26T16:41:04.952Z,9.25
2022-08-26T16:43:31.860Z,11.15
2022-08-26T16:45:58.865Z,8.68
2022-08-26T16:48:26.828Z,9.45
2022-08-26T16:50:55.494Z,12.95
2022-08-26T16:53:22.876Z,10.05
2022-08-26T16:55:50.353Z,10.90
2022-08-26T16:58:17.883Z,10.48
2022-08-26T17:00:45.341Z,11.50
2022-08-26T17:03:12.617Z,9.43
2022-08-26T17:05:40.315Z,14.30
2022-08-26T17:08:07.351Z,10.23
2022-08-26T17:10:34.534Z,12.15
2022-08-26T17:13:01.396Z,11.05
2022-08-26T17:15:28.645Z,10.20
2022-08-26T17:17:56.765Z,9.05
2022-08-26T17:20:24.840Z,12.60
2022-08-26T17:22:53.897Z,11.68
2022-08-26T17:25:25.807Z,13.50
2022-08-26T17:27:52.943Z,12.68
2022-08-26T17:30:21.077Z,13.10
2022-08-26T17:32:48.411Z,8.98
2022-08-26T17:35:16.068Z,12.05
2022-08-26T17:37:43.536Z,10.52
2022-08-26T17:40:13.933Z,8.52
2022-08-26T17:42:41.322Z,11.18
2022-08-26T17:45:09.909Z,14.48
2022-08-26T17:47:37.477Z,11.45
2022-08-26T17:50:06.295Z,9.27
2022-08-26T17:52:33.036Z,12.85
2022-08-26T17:54:59.771Z,9.82
2022-08-26T17:57:27.145Z,11.13
2022-08-26T17:59:54.468Z,10.32
2022-08-26T18:02:21.536Z,15.15
2022-08-26T18:04:48.597Z,7.65
2022-08-26T18:07:16.331Z,11.43
2022-08-26T18:09:43.349Z,14.68
2022-08-26T18:12:11.017Z,48.08
2022-08-26T18:14:38.059Z,31.30
2022-08-26T18:17:05.066Z,15.32
2022-08-26T18:19:31.928Z,11.63
2022-08-26T18:21:58.979Z,14.00
2022-08-26T18:24:28.637Z,13.50
2022-08-26T18:26:55.435Z,11.27
2022-08-26T18:29:22.288Z,44.78
2022-08-26T18:31:49.579Z,22.40
2022-08-26T18:34:16.964Z,18.85
2022-08-26T18:36:44.169Z,14.60
2022-08-26T18:39:12.618Z,11.65
2022-08-26T18:41:44.212Z,12.93
2022-08-26T18:46:41.569Z,12.45
2022-08-26T18:49:10.824Z,11.00
2022-08-26T18:51:38.159Z,12.57
2022-08-26T18:54:06.973Z,11.50
2022-08-26T18:56:35.928Z,12.65
2022-08-26T18:59:04.907Z,14.65
2022-08-26T19:01:32.738Z,11.02
2022-08-26T19:04:01.992Z,16.17
2022-08-26T19:06:31.638Z,11.02
2022-08-26T19:08:59.122Z,12.20
2022-08-26T19:11:32.535Z,18.95
2022-08-26T19:14:09.158Z,13.88
2022-08-26T19:16:37.462Z,13.27
2022-08-26T19:19:05.269Z,10.52
2022-08-26T19:21:35.750Z,10.43
2022-08-26T19:24:12.642Z,14.00
2022-08-26T19:26:40.042Z,11.30
2022-08-26T19:29:07.412Z,13.55
2022-08-26T19:31:35.143Z,11.88
2022-08-26T19:34:02.390Z,12.55
2022-08-26T19:36:29.745Z,12.63
2022-08-26T19:38:57.388Z,12.90
2022-08-26T19:41:37.183Z,13.63
2022-08-26T19:44:37.347Z,13.88
2022-08-26T19:47:06.550Z,12.25
2022-08-26T19:49:43.348Z,13.80
2022-08-26T19:52:12.070Z,15.27
2022-08-26T19:54:40.042Z,15.02
2022-08-26T19:57:07.259Z,13.98
2022-08-26T19:59:36.359Z,13.20
2022-08-26T20:02:10.913Z,16.20
2022-08-26T20:04:39.390Z,13.25
2022-08-26T20:07:06.462Z,13.20
2022-08-26T20:09:34.227Z,11.40
2022-08-26T20:12:02.702Z,17.48
2022-08-26T20:14:30.707Z,13.30
2022-08-26T20:16:57.965Z,12.73
2022-08-26T20:19:43.534Z,10.43
2022-08-26T20:22:11.113Z,13.48
2022-08-26T20:24:38.122Z,13.38
2022-08-26T20:27:07.970Z,10.27
2022-08-26T20:29:36.060Z,12.55
2022-08-26T20:32:05.951Z,13.10
2022-08-26T20:34:33.843Z,14.00
2022-08-26T20:37:01.212Z,18.17
2022-08-26T20:39:29.621Z,13.20
2022-08-26T20:41:57.812Z,11.40
2022-08-26T20:44:25.185Z,14.50
2022-08-26T20:46:51.957Z,15.23
2022-08-26T20:49:18.722Z,11.73
2022-08-26T20:51:48.247Z,16.08
2022-08-26T20:54:15.427Z,16.88
2022-08-26T20:56:42.227Z,17.23
2022-08-26T20:59:09.923Z,22.95
2022-08-26T21:01:42.419Z,14.93
2022-08-26T21:04:17.035Z,11.82
2022-08-26T21:06:49.894Z,13.82
2022-08-26T21:09:21.424Z,14.38
2022-08-26T21:11:48.603Z,12.60
2022-08-26T21:14:16.843Z,15.18
2022-08-26T21:16:44.776Z,17.67
2022-08-26T21:19:14.564Z,19.52
2022-08-26T21:21:42.080Z,16.77
2022-08-26T21:24:09.110Z,16.08
2022-08-26T21:26:36.160Z,16.23
2022-08-26T21:29:04.045Z,19.58
2022-08-26T21:31:32.297Z,19.38
2022-08-26T21:34:00.026Z,14.52
2022-08-26T21:36:27.270Z,16.98
2022-08-26T21:38:58.504Z,13.13
2022-08-26T21:41:26.805Z,20.27
2022-08-26T21:43:59.199Z,18.50
2022-08-26T21:46:29.323Z,17.17
2022-08-26T21:49:00.441Z,14.15
2022-08-26T21:51:31.113Z,14.73
2022-08-26T21:53:59.973Z,16.60
2022-08-26T21:56:29.910Z,21.00
2022-08-26T21:58:57.732Z,18.65
2022-08-26T22:01:27.849Z,15.45
2022-08-26T22:03:55.699Z,14.80
2022-08-26T22:06:25.273Z,17.10
2022-08-26T22:08:52.923Z,20.63
2022-08-26T22:11:20.716Z,17.25
2022-08-26T22:13:48.680Z,20.95
2022-08-26T22:16:16.467Z,16.17
2022-08-26T22:18:45.109Z,16.13
2022-08-26T22:21:16.836Z,21.70
2022-08-26T22:23:45.249Z,15.85
2022-08-26T22:26:14.605Z,17.38
2022-08-26T22:28:42.459Z,16.20
2022-08-26T22:31:12.459Z,15.55
2022-08-26T22:33:43.043Z,17.02
2022-08-26T22:36:23.392Z,14.45
2022-08-26T22:38:51.376Z,14.77
2022-08-26T22:41:18.968Z,16.23
2022-08-26T22:43:46.072Z,15.52
2022-08-26T22:46:22.792Z,16.40
2022-08-26T22:48:51.947Z,33.50
2022-08-26T22:51:21.443Z,71.13
2022-08-26T22:53:48.261Z,29.80
2022-08-26T22:56:15.403Z,15.35
2022-08-26T22:58:42.477Z,11.95
2022-08-26T23:01:09.407Z,14.32
2022-08-26T23:03:36.279Z,11.85
2022-08-26T23:06:06.526Z,15.07
2022-08-26T23:08:33.837Z,11.52
2022-08-26T23:11:01.396Z,12.65
2022-08-26T23:13:28.358Z,11.55
2022-08-26T23:16:09.106Z,11.43
2022-08-26T23:18:35.948Z,11.25
2022-08-26T23:21:02.953Z,11.20
2022-08-26T23:23:29.694Z,10.48
2022-08-26T23:25:56.939Z,12.90
2022-08-26T23:28:24.160Z,10.95
2022-08-26T23:30:50.919Z,11.10
2022-08-26T23:33:17.739Z,12.27
2022-08-26T23:35:44.507Z,10.48
2022-08-26T23:38:14.116Z,9.65
2022-08-26T23:40:41.551Z,12.35
2022-08-26T23:43:11.496Z,13.23
2022-08-26T23:45:38.770Z,10.45
2022-08-26T23:48:06.740Z,8.50
2022-08-26T23:50:52.595Z,13.48
2022-08-26T23:53:22.360Z,10.38
2022-08-26T23:55:51.895Z,8.95
2022-08-26T23:58:20.510Z,11.52
